METAR Data
IDs: Format: Raw Decoded Include TAF

Data at: 2133 UTC 18 Apr 2021

ETHS 182120Z 06005KT 8000 BKN020 BKN050 08/08 Q1021 WHT